HVN1378 VVTS-VVPB
Flight info
| Callsign | HVN1378 |
|---|---|
| Flight time | 1h 1m |
| Altitude | 35000 |
| Route | PATMA5G PATMA Q2 LATOM LATOM1B |
| Aircraft | A321/M-SDE3FGHIRWY/LB1 |
Departure
| Time | 2026-04-26 06:28 |
|---|---|
| Airport | Tan Son Nhat International Airport (VVTS) |
Arrival
| Time | 2026-04-26 07:30 |
|---|---|
| Airport | Phu Bai International Airport (VVPB) |
| Time | Latitude | Longitude | Altitude | Speed | Heading |
|---|---|---|---|---|---|
| 2026-04-26 05:46 | 10.81230 | 106.65235 | 38 ft | 0 kts | 159° |
| 2026-04-26 06:16 | 10.81251 | 106.65227 | 37 ft | 4 kts | 159° |
| 2026-04-26 06:16 | 10.81272 | 106.65220 | 37 ft | 4 kts | 175° |
| 2026-04-26 06:16 | 10.81293 | 106.65226 | 37 ft | 4 kts | 238° |
| 2026-04-26 06:16 | 10.81303 | 106.65250 | 37 ft | 2 kts | 249° |
| 2026-04-26 06:17 | 10.81304 | 106.65252 | 37 ft | 0 kts | 249° |
| 2026-04-26 06:21 | 10.81303 | 106.65250 | 37 ft | 1 kts | 249° |
| 2026-04-26 06:21 | 10.81301 | 106.65243 | 36 ft | 1 kts | 249° |
| 2026-04-26 06:21 | 10.81297 | 106.65232 | 37 ft | 2 kts | 249° |
| 2026-04-26 06:21 | 10.81289 | 106.65211 | 37 ft | 6 kts | 249° |
| 2026-04-26 06:22 | 10.81271 | 106.65162 | 37 ft | 8 kts | 249° |
| 2026-04-26 06:22 | 10.81253 | 106.65116 | 37 ft | 5 kts | 250° |
| 2026-04-26 06:22 | 10.81262 | 106.65084 | 37 ft | 5 kts | 311° |
| 2026-04-26 06:22 | 10.81293 | 106.65065 | 37 ft | 6 kts | 335° |
| 2026-04-26 06:23 | 10.81332 | 106.65044 | 35 ft | 8 kts | 316° |
| 2026-04-26 06:23 | 10.81338 | 106.64994 | 38 ft | 8 kts | 256° |
| 2026-04-26 06:23 | 10.81315 | 106.64928 | 37 ft | 12 kts | 249° |
| 2026-04-26 06:23 | 10.81284 | 106.64845 | 37 ft | 13 kts | 249° |
| 2026-04-26 06:24 | 10.81251 | 106.64759 | 38 ft | 13 kts | 248° |
| 2026-04-26 06:24 | 10.81217 | 106.64670 | 38 ft | 16 kts | 249° |
| 2026-04-26 06:24 | 10.81171 | 106.64551 | 39 ft | 18 kts | 249° |
| 2026-04-26 06:24 | 10.81125 | 106.64425 | 34 ft | 20 kts | 249° |
| 2026-04-26 06:25 | 10.81074 | 106.64291 | 35 ft | 20 kts | 249° |
| 2026-04-26 06:25 | 10.81023 | 106.64156 | 34 ft | 21 kts | 249° |
| 2026-04-26 06:25 | 10.80973 | 106.64022 | 35 ft | 19 kts | 249° |
| 2026-04-26 06:25 | 10.80934 | 106.63932 | 37 ft | 13 kts | 245° |
| 2026-04-26 06:26 | 10.80929 | 106.63844 | 37 ft | 13 kts | 285° |
| 2026-04-26 06:26 | 10.80979 | 106.63767 | 36 ft | 14 kts | 320° |
| 2026-04-26 06:26 | 10.81057 | 106.63728 | 35 ft | 10 kts | 339° |
| 2026-04-26 06:26 | 10.81124 | 106.63705 | 35 ft | 10 kts | 359° |
| 2026-04-26 06:27 | 10.81162 | 106.63753 | 34 ft | 3 kts | 72° |
| 2026-04-26 06:27 | 10.81173 | 106.63785 | 31 ft | 6 kts | 70° |
| 2026-04-26 06:27 | 10.81181 | 106.63810 | 32 ft | 5 kts | 70° |
| 2026-04-26 06:27 | 10.81221 | 106.63919 | 31 ft | 43 kts | 69° |
| 2026-04-26 06:28 | 10.81413 | 106.64419 | 39 ft | 107 kts | 69° |
| 2026-04-26 06:28 | 10.81748 | 106.65308 | 35 ft | 159 kts | 69° |
| 2026-04-26 06:28 | 10.82185 | 106.66462 | 314 ft | 177 kts | 68° |
| 2026-04-26 06:28 | 10.82677 | 106.67616 | 952 ft | 179 kts | 67° |
| 2026-04-26 06:29 | 10.83172 | 106.68785 | 1607 ft | 180 kts | 69° |
| 2026-04-26 06:29 | 10.83668 | 106.69979 | 1963 ft | 190 kts | 69° |
| 2026-04-26 06:29 | 10.84206 | 106.71283 | 2102 ft | 209 kts | 69° |
| 2026-04-26 06:29 | 10.84792 | 106.72703 | 2232 ft | 227 kts | 68° |
| 2026-04-26 06:30 | 10.85429 | 106.74255 | 2338 ft | 249 kts | 68° |
| 2026-04-26 06:30 | 10.86111 | 106.75931 | 2700 ft | 260 kts | 69° |
| 2026-04-26 06:30 | 10.86508 | 106.77727 | 3286 ft | 262 kts | 84° |
| 2026-04-26 06:30 | 10.86692 | 106.79572 | 3903 ft | 264 kts | 84° |
| 2026-04-26 06:31 | 10.86886 | 106.81436 | 4516 ft | 266 kts | 83° |
| 2026-04-26 06:31 | 10.87083 | 106.83312 | 5105 ft | 268 kts | 84° |
| 2026-04-26 06:31 | 10.87214 | 106.84567 | 5496 ft | 270 kts | 83° |
| 2026-04-26 06:31 | 10.87415 | 106.86481 | 6060 ft | 274 kts | 84° |
| 2026-04-26 06:32 | 10.87616 | 106.88414 | 6629 ft | 276 kts | 84° |
| 2026-04-26 06:32 | 10.87816 | 106.90364 | 7173 ft | 278 kts | 84° |
| 2026-04-26 06:32 | 10.88020 | 106.92331 | 7682 ft | 281 kts | 84° |
| 2026-04-26 06:32 | 10.88225 | 106.94331 | 8181 ft | 285 kts | 84° |
| 2026-04-26 06:33 | 10.88431 | 106.96347 | 8682 ft | 287 kts | 84° |
| 2026-04-26 06:33 | 10.88637 | 106.98378 | 9152 ft | 290 kts | 84° |
| 2026-04-26 06:33 | 10.88851 | 107.00433 | 9624 ft | 293 kts | 84° |
| 2026-04-26 06:33 | 10.89079 | 107.02510 | 10029 ft | 300 kts | 81° |
| 2026-04-26 06:34 | 10.89640 | 107.04608 | 10147 ft | 315 kts | 68° |
| 2026-04-26 06:34 | 10.90674 | 107.06629 | 10308 ft | 329 kts | 56° |
| 2026-04-26 06:34 | 10.92148 | 107.08466 | 10451 ft | 342 kts | 45° |
| 2026-04-26 06:34 | 10.94038 | 107.10016 | 10581 ft | 356 kts | 33° |
| 2026-04-26 06:35 | 10.96191 | 107.11338 | 10709 ft | 368 kts | 31° |
| 2026-04-26 06:35 | 10.99145 | 107.13148 | 11002 ft | 378 kts | 31° |
| 2026-04-26 06:35 | 11.00671 | 107.14086 | 11237 ft | 381 kts | 32° |
| 2026-04-26 06:35 | 11.02947 | 107.15489 | 11642 ft | 384 kts | 32° |
| 2026-04-26 06:36 | 11.05238 | 107.16900 | 12052 ft | 386 kts | 31° |
| 2026-04-26 06:36 | 11.07541 | 107.18319 | 12472 ft | 387 kts | 31° |
| 2026-04-26 06:36 | 11.09852 | 107.19742 | 12876 ft | 389 kts | 31° |
| 2026-04-26 06:36 | 11.12174 | 107.21173 | 13258 ft | 392 kts | 31° |
| 2026-04-26 06:37 | 11.14511 | 107.22616 | 13628 ft | 394 kts | 31° |
| 2026-04-26 06:37 | 11.16898 | 107.23994 | 13983 ft | 396 kts | 26° |
| 2026-04-26 06:37 | 11.19400 | 107.25203 | 14342 ft | 399 kts | 25° |
| 2026-04-26 06:37 | 11.21913 | 107.26417 | 14721 ft | 401 kts | 25° |
| 2026-04-26 06:38 | 11.24439 | 107.27643 | 15079 ft | 403 kts | 25° |
| 2026-04-26 06:38 | 11.26974 | 107.28878 | 15427 ft | 405 kts | 25° |
| 2026-04-26 06:38 | 11.29522 | 107.30122 | 15760 ft | 407 kts | 25° |
| 2026-04-26 06:38 | 11.32087 | 107.31373 | 16112 ft | 409 kts | 25° |
| 2026-04-26 06:39 | 11.34667 | 107.32627 | 16450 ft | 411 kts | 25° |
| 2026-04-26 06:39 | 11.37254 | 107.33884 | 16781 ft | 413 kts | 25° |
| 2026-04-26 06:39 | 11.39851 | 107.35147 | 17100 ft | 415 kts | 25° |
| 2026-04-26 06:39 | 11.42465 | 107.36420 | 17416 ft | 417 kts | 25° |
| 2026-04-26 06:40 | 11.45090 | 107.37697 | 17705 ft | 419 kts | 25° |
| 2026-04-26 06:40 | 11.47730 | 107.38982 | 17992 ft | 421 kts | 25° |
| 2026-04-26 06:40 | 11.50373 | 107.40273 | 18277 ft | 423 kts | 25° |
| 2026-04-26 06:40 | 11.53031 | 107.41573 | 18566 ft | 424 kts | 25° |
| 2026-04-26 06:41 | 11.55704 | 107.42881 | 18852 ft | 426 kts | 25° |
| 2026-04-26 06:41 | 11.58382 | 107.44188 | 19125 ft | 428 kts | 25° |
| 2026-04-26 06:41 | 11.61075 | 107.45499 | 19399 ft | 430 kts | 25° |
| 2026-04-26 06:41 | 11.63776 | 107.46813 | 19683 ft | 431 kts | 25° |
| 2026-04-26 06:42 | 11.66488 | 107.48133 | 19963 ft | 432 kts | 25° |
| 2026-04-26 06:42 | 11.69205 | 107.49458 | 20248 ft | 434 kts | 25° |
| 2026-04-26 06:42 | 11.71928 | 107.50786 | 20491 ft | 435 kts | 25° |
| 2026-04-26 06:42 | 11.74667 | 107.52125 | 20736 ft | 437 kts | 25° |
| 2026-04-26 06:43 | 11.77414 | 107.53469 | 20992 ft | 438 kts | 25° |
| 2026-04-26 06:43 | 11.80165 | 107.54817 | 21243 ft | 440 kts | 25° |
| 2026-04-26 06:43 | 11.82929 | 107.56168 | 21472 ft | 441 kts | 25° |
| 2026-04-26 06:43 | 11.85704 | 107.57523 | 21704 ft | 443 kts | 25° |
| 2026-04-26 06:44 | 11.88485 | 107.58882 | 21950 ft | 444 kts | 25° |
| 2026-04-26 06:44 | 11.91238 | 107.60228 | 22174 ft | 445 kts | 25° |
| 2026-04-26 06:44 | 11.94029 | 107.61594 | 22385 ft | 446 kts | 25° |
| 2026-04-26 06:44 | 11.96832 | 107.62965 | 22601 ft | 447 kts | 25° |
| 2026-04-26 06:45 | 11.99646 | 107.64341 | 22800 ft | 448 kts | 25° |
| 2026-04-26 06:45 | 12.02460 | 107.65719 | 23017 ft | 449 kts | 25° |
| 2026-04-26 06:45 | 12.05281 | 107.67100 | 23212 ft | 451 kts | 25° |
| 2026-04-26 06:45 | 12.08119 | 107.68488 | 23412 ft | 452 kts | 25° |
| 2026-04-26 06:46 | 12.10960 | 107.69875 | 23604 ft | 453 kts | 25° |
| 2026-04-26 06:46 | 12.13808 | 107.71271 | 23819 ft | 455 kts | 25° |
| 2026-04-26 06:46 | 12.16665 | 107.72671 | 24014 ft | 455 kts | 25° |
| 2026-04-26 06:46 | 12.19530 | 107.74075 | 24202 ft | 457 kts | 25° |
| 2026-04-26 06:47 | 12.22396 | 107.75480 | 24402 ft | 458 kts | 25° |
| 2026-04-26 06:47 | 12.25273 | 107.76893 | 24581 ft | 459 kts | 25° |
| 2026-04-26 06:47 | 12.28160 | 107.78309 | 24744 ft | 461 kts | 25° |
| 2026-04-26 06:47 | 12.31076 | 107.79682 | 24904 ft | 463 kts | 21° |
| 2026-04-26 06:48 | 12.34153 | 107.80634 | 25073 ft | 464 kts | 11° |
| 2026-04-26 06:48 | 12.37351 | 107.81059 | 25246 ft | 464 kts | 2° |
| 2026-04-26 06:48 | 12.40591 | 107.81124 | 25406 ft | 466 kts | 1° |
| 2026-04-26 06:48 | 12.43839 | 107.81184 | 25566 ft | 468 kts | 1° |
| 2026-04-26 06:49 | 12.47096 | 107.81251 | 25732 ft | 469 kts | 1° |
| 2026-04-26 06:49 | 12.50361 | 107.81323 | 25891 ft | 470 kts | 1° |
| 2026-04-26 06:49 | 12.53641 | 107.81393 | 26054 ft | 471 kts | 1° |
| 2026-04-26 06:49 | 12.56925 | 107.81460 | 26213 ft | 473 kts | 1° |
| 2026-04-26 06:50 | 12.60220 | 107.81526 | 26361 ft | 474 kts | 0° |
| 2026-04-26 06:50 | 12.63521 | 107.81589 | 26501 ft | 475 kts | 0° |
| 2026-04-26 06:50 | 12.66828 | 107.81650 | 26633 ft | 476 kts | 0° |
| 2026-04-26 06:50 | 12.70143 | 107.81713 | 26763 ft | 477 kts | 0° |
| 2026-04-26 06:51 | 12.73466 | 107.81778 | 26895 ft | 478 kts | 0° |
| 2026-04-26 06:51 | 12.80130 | 107.81912 | 27138 ft | 479 kts | 0° |
| 2026-04-26 06:51 | 12.83466 | 107.81982 | 27273 ft | 480 kts | 0° |
| 2026-04-26 06:52 | 12.86802 | 107.82050 | 27432 ft | 479 kts | 0° |
| 2026-04-26 06:52 | 12.90134 | 107.82115 | 27598 ft | 479 kts | 0° |
| 2026-04-26 06:52 | 12.93467 | 107.82177 | 27757 ft | 479 kts | 0° |
| 2026-04-26 06:52 | 12.96796 | 107.82240 | 27928 ft | 478 kts | 0° |
| 2026-04-26 06:53 | 13.00116 | 107.82306 | 28084 ft | 478 kts | 0° |
| 2026-04-26 06:53 | 13.03447 | 107.82374 | 28246 ft | 478 kts | 0° |
| 2026-04-26 06:53 | 13.06769 | 107.82442 | 28413 ft | 477 kts | 360° |
| 2026-04-26 06:53 | 13.10088 | 107.82506 | 28592 ft | 477 kts | 360° |
| 2026-04-26 06:54 | 13.13401 | 107.82570 | 28764 ft | 476 kts | 360° |
| 2026-04-26 06:54 | 13.16716 | 107.82634 | 28938 ft | 476 kts | 360° |
| 2026-04-26 06:54 | 13.20030 | 107.82700 | 29101 ft | 476 kts | 359° |
| 2026-04-26 06:54 | 13.23295 | 107.82767 | 29265 ft | 475 kts | 359° |
| 2026-04-26 06:55 | 13.26644 | 107.82834 | 29437 ft | 475 kts | 359° |
| 2026-04-26 06:55 | 13.29949 | 107.82900 | 29610 ft | 474 kts | 359° |
| 2026-04-26 06:55 | 13.33248 | 107.82965 | 29791 ft | 474 kts | 359° |
| 2026-04-26 06:55 | 13.36539 | 107.83033 | 29970 ft | 474 kts | 359° |
| 2026-04-26 06:56 | 13.39834 | 107.83103 | 30142 ft | 473 kts | 359° |
| 2026-04-26 06:56 | 13.43125 | 107.83174 | 30320 ft | 473 kts | 359° |
| 2026-04-26 06:56 | 13.46414 | 107.83243 | 30504 ft | 472 kts | 359° |
| 2026-04-26 06:56 | 13.49691 | 107.83313 | 30696 ft | 471 kts | 359° |
| 2026-04-26 06:57 | 13.52965 | 107.83384 | 30883 ft | 470 kts | 359° |
| 2026-04-26 06:57 | 13.56237 | 107.83452 | 31060 ft | 470 kts | 359° |
| 2026-04-26 06:57 | 13.59499 | 107.83520 | 31241 ft | 469 kts | 359° |
| 2026-04-26 06:57 | 13.62757 | 107.83588 | 31423 ft | 468 kts | 359° |
| 2026-04-26 06:58 | 13.66009 | 107.83654 | 31595 ft | 467 kts | 359° |
| 2026-04-26 06:58 | 13.69257 | 107.83721 | 31766 ft | 467 kts | 359° |
| 2026-04-26 06:58 | 13.72499 | 107.83788 | 31947 ft | 466 kts | 359° |
| 2026-04-26 06:58 | 13.75737 | 107.83854 | 32139 ft | 465 kts | 359° |
| 2026-04-26 06:59 | 13.78970 | 107.83919 | 32302 ft | 464 kts | 358° |
| 2026-04-26 06:59 | 13.82200 | 107.83986 | 32473 ft | 464 kts | 359° |
| 2026-04-26 06:59 | 13.85421 | 107.84056 | 32634 ft | 463 kts | 359° |
| 2026-04-26 06:59 | 13.88643 | 107.84125 | 32802 ft | 462 kts | 359° |
| 2026-04-26 07:00 | 13.95076 | 107.84254 | 32909 ft | 462 kts | 358° |
| 2026-04-26 07:00 | 14.01499 | 107.84380 | 32912 ft | 462 kts | 358° |
| 2026-04-26 07:01 | 14.07877 | 107.84413 | 32904 ft | 461 kts | 357° |
| 2026-04-26 07:01 | 14.14333 | 107.84380 | 32908 ft | 461 kts | 357° |
| 2026-04-26 07:02 | 14.20755 | 107.84352 | 32914 ft | 461 kts | 357° |
| 2026-04-26 07:02 | 14.27172 | 107.84350 | 32921 ft | 461 kts | 357° |
| 2026-04-26 07:03 | 14.33600 | 107.84360 | 32923 ft | 462 kts | 357° |
| 2026-04-26 07:03 | 14.40027 | 107.84365 | 32928 ft | 462 kts | 357° |
| 2026-04-26 07:04 | 14.46456 | 107.84364 | 32927 ft | 462 kts | 357° |
| 2026-04-26 07:04 | 14.52877 | 107.84361 | 32930 ft | 462 kts | 357° |
| 2026-04-26 07:05 | 14.59302 | 107.84359 | 32929 ft | 462 kts | 357° |
| 2026-04-26 07:05 | 14.65732 | 107.84358 | 32933 ft | 462 kts | 357° |
| 2026-04-26 07:06 | 14.72160 | 107.84357 | 32931 ft | 462 kts | 357° |
| 2026-04-26 07:06 | 14.78589 | 107.84356 | 32932 ft | 462 kts | 356° |
| 2026-04-26 07:07 | 14.85026 | 107.84370 | 32933 ft | 463 kts | 359° |
| 2026-04-26 07:07 | 14.91382 | 107.85639 | 32934 ft | 471 kts | 17° |
| 2026-04-26 07:08 | 14.97544 | 107.87967 | 32931 ft | 471 kts | 17° |
| 2026-04-26 07:08 | 15.03708 | 107.90278 | 32903 ft | 472 kts | 17° |
| 2026-04-26 07:09 | 15.06800 | 107.91438 | 32348 ft | 473 kts | 17° |
| 2026-04-26 07:09 | 15.09913 | 107.92605 | 31360 ft | 478 kts | 17° |
| 2026-04-26 07:09 | 15.13045 | 107.93780 | 30491 ft | 479 kts | 17° |
| 2026-04-26 07:09 | 15.16190 | 107.94960 | 29487 ft | 483 kts | 17° |
| 2026-04-26 07:10 | 15.25728 | 107.98538 | 26311 ft | 488 kts | 17° |
| 2026-04-26 07:11 | 15.32019 | 108.00915 | 24787 ft | 477 kts | 17° |
| 2026-04-26 07:11 | 15.35124 | 108.02087 | 24064 ft | 472 kts | 17° |
| 2026-04-26 07:11 | 15.38192 | 108.03223 | 23377 ft | 465 kts | 14° |
| 2026-04-26 07:11 | 15.41311 | 108.03959 | 22710 ft | 455 kts | 4° |
| 2026-04-26 07:12 | 15.44429 | 108.04156 | 22058 ft | 445 kts | 356° |
| 2026-04-26 07:12 | 15.47478 | 108.03863 | 21415 ft | 436 kts | 349° |
| 2026-04-26 07:12 | 15.50468 | 108.03425 | 20790 ft | 430 kts | 349° |
| 2026-04-26 07:12 | 15.52424 | 108.03139 | 20377 ft | 427 kts | 349° |
| 2026-04-26 07:13 | 15.55345 | 108.02712 | 19863 ft | 419 kts | 350° |
| 2026-04-26 07:13 | 15.58211 | 108.02297 | 19299 ft | 413 kts | 350° |
| 2026-04-26 07:13 | 15.61042 | 108.01889 | 18691 ft | 409 kts | 350° |
| 2026-04-26 07:13 | 15.63840 | 108.01487 | 18144 ft | 404 kts | 351° |
| 2026-04-26 07:14 | 15.66606 | 108.01090 | 17605 ft | 399 kts | 351° |
| 2026-04-26 07:14 | 15.69345 | 108.00693 | 17087 ft | 396 kts | 351° |
| 2026-04-26 07:14 | 15.72061 | 108.00296 | 16575 ft | 393 kts | 351° |
| 2026-04-26 07:14 | 15.74743 | 107.99809 | 16080 ft | 389 kts | 344° |
| 2026-04-26 07:15 | 15.77317 | 107.98899 | 15551 ft | 399 kts | 336° |
| 2026-04-26 07:15 | 15.79899 | 107.97770 | 14993 ft | 404 kts | 336° |
| 2026-04-26 07:15 | 15.82484 | 107.96641 | 14439 ft | 402 kts | 336° |
| 2026-04-26 07:15 | 15.85060 | 107.95521 | 13887 ft | 399 kts | 336° |
| 2026-04-26 07:16 | 15.87616 | 107.94415 | 13342 ft | 396 kts | 336° |
| 2026-04-26 07:16 | 15.90152 | 107.93317 | 12807 ft | 393 kts | 336° |
| 2026-04-26 07:16 | 15.92666 | 107.92229 | 12258 ft | 390 kts | 336° |
| 2026-04-26 07:16 | 15.95161 | 107.91148 | 11723 ft | 387 kts | 336° |
| 2026-04-26 07:17 | 15.97636 | 107.90074 | 11199 ft | 384 kts | 336° |
| 2026-04-26 07:17 | 16.00063 | 107.89019 | 10954 ft | 369 kts | 336° |
| 2026-04-26 07:17 | 16.02378 | 107.88012 | 10826 ft | 352 kts | 336° |
| 2026-04-26 07:17 | 16.04588 | 107.87052 | 10700 ft | 336 kts | 336° |
| 2026-04-26 07:18 | 16.06699 | 107.86133 | 10569 ft | 322 kts | 336° |
| 2026-04-26 07:18 | 16.08722 | 107.85254 | 10444 ft | 309 kts | 336° |
| 2026-04-26 07:18 | 16.10686 | 107.84404 | 10185 ft | 302 kts | 336° |
| 2026-04-26 07:18 | 16.12620 | 107.83565 | 9951 ft | 300 kts | 336° |
| 2026-04-26 07:19 | 16.14425 | 107.82492 | 9827 ft | 299 kts | 320° |
| 2026-04-26 07:19 | 16.15861 | 107.80942 | 9701 ft | 298 kts | 304° |
| 2026-04-26 07:19 | 16.16854 | 107.79058 | 9450 ft | 297 kts | 293° |
| 2026-04-26 07:19 | 16.17707 | 107.77109 | 9119 ft | 296 kts | 293° |
| 2026-04-26 07:20 | 16.18557 | 107.75168 | 8785 ft | 295 kts | 293° |
| 2026-04-26 07:20 | 16.19406 | 107.73232 | 8454 ft | 294 kts | 294° |
| 2026-04-26 07:20 | 16.20253 | 107.71301 | 8105 ft | 292 kts | 294° |
| 2026-04-26 07:20 | 16.21095 | 107.69384 | 7758 ft | 291 kts | 294° |
| 2026-04-26 07:21 | 16.21930 | 107.67470 | 7423 ft | 290 kts | 294° |
| 2026-04-26 07:21 | 16.22761 | 107.65571 | 7098 ft | 285 kts | 294° |
| 2026-04-26 07:21 | 16.23589 | 107.63692 | 6765 ft | 285 kts | 294° |
| 2026-04-26 07:21 | 16.24408 | 107.61836 | 6426 ft | 278 kts | 294° |
| 2026-04-26 07:22 | 16.25201 | 107.60041 | 6105 ft | 268 kts | 294° |
| 2026-04-26 07:22 | 16.25961 | 107.58315 | 5818 ft | 259 kts | 293° |
| 2026-04-26 07:22 | 16.26705 | 107.56612 | 5496 ft | 256 kts | 294° |
| 2026-04-26 07:22 | 16.27438 | 107.54934 | 5192 ft | 253 kts | 293° |
| 2026-04-26 07:23 | 16.28187 | 107.53302 | 4895 ft | 247 kts | 301° |
| 2026-04-26 07:23 | 16.29273 | 107.51963 | 4620 ft | 239 kts | 320° |
| 2026-04-26 07:23 | 16.30667 | 107.51074 | 4343 ft | 235 kts | 338° |
| 2026-04-26 07:23 | 16.32237 | 107.50677 | 4034 ft | 231 kts | 357° |
| 2026-04-26 07:24 | 16.33840 | 107.50726 | 3751 ft | 230 kts | 5° |
| 2026-04-26 07:24 | 16.35435 | 107.50826 | 3485 ft | 230 kts | 4° |
| 2026-04-26 07:24 | 16.37012 | 107.50916 | 3202 ft | 223 kts | 5° |
| 2026-04-26 07:24 | 16.38528 | 107.51003 | 2890 ft | 214 kts | 6° |
| 2026-04-26 07:25 | 16.39879 | 107.51485 | 2629 ft | 200 kts | 38° |
| 2026-04-26 07:25 | 16.40719 | 107.52547 | 2461 ft | 184 kts | 68° |
| 2026-04-26 07:25 | 16.40938 | 107.53783 | 2395 ft | 167 kts | 94° |
| 2026-04-26 07:25 | 16.40864 | 107.54967 | 2305 ft | 162 kts | 93° |
| 2026-04-26 07:26 | 16.40803 | 107.56126 | 2211 ft | 160 kts | 91° |
| 2026-04-26 07:26 | 16.40743 | 107.57276 | 2116 ft | 157 kts | 93° |
| 2026-04-26 07:26 | 16.40688 | 107.58410 | 2055 ft | 156 kts | 93° |
| 2026-04-26 07:26 | 16.40632 | 107.59524 | 1901 ft | 153 kts | 92° |
| 2026-04-26 07:27 | 16.40577 | 107.60616 | 1693 ft | 150 kts | 92° |
| 2026-04-26 07:27 | 16.40519 | 107.61690 | 1489 ft | 148 kts | 92° |
| 2026-04-26 07:27 | 16.40464 | 107.62758 | 1293 ft | 148 kts | 91° |
| 2026-04-26 07:27 | 16.40408 | 107.63820 | 1092 ft | 147 kts | 91° |
| 2026-04-26 07:28 | 16.40353 | 107.64878 | 894 ft | 146 kts | 92° |
| 2026-04-26 07:28 | 16.40287 | 107.65937 | 709 ft | 147 kts | 93° |
| 2026-04-26 07:28 | 16.40210 | 107.66997 | 531 ft | 147 kts | 91° |
| 2026-04-26 07:28 | 16.40167 | 107.68058 | 343 ft | 147 kts | 90° |
| 2026-04-26 07:29 | 16.40121 | 107.69120 | 125 ft | 147 kts | 92° |
| 2026-04-26 07:29 | 16.40075 | 107.70092 | 56 ft | 104 kts | 94° |
| 2026-04-26 07:29 | 16.40043 | 107.70635 | 47 ft | 65 kts | 93° |
| 2026-04-26 07:29 | 16.40019 | 107.71073 | 43 ft | 50 kts | 92° |
| 2026-04-26 07:30 | 16.40003 | 107.71316 | 40 ft | 24 kts | 95° |
| 2026-04-26 07:30 | 16.39995 | 107.71444 | 40 ft | 18 kts | 93° |
| 2026-04-26 07:30 | 16.39972 | 107.71534 | 39 ft | 12 kts | 130° |
| 2026-04-26 07:30 | 16.39946 | 107.71612 | 37 ft | 13 kts | 47° |
| 2026-04-26 07:31 | 16.39990 | 107.71571 | 38 ft | 11 kts | 275° |
| 2026-04-26 07:31 | 16.39996 | 107.71473 | 39 ft | 18 kts | 274° |
| 2026-04-26 07:31 | 16.40003 | 107.71335 | 40 ft | 19 kts | 272° |
| 2026-04-26 07:31 | 16.40010 | 107.71195 | 41 ft | 19 kts | 273° |
| 2026-04-26 07:32 | 16.40018 | 107.71057 | 43 ft | 19 kts | 273° |
| 2026-04-26 07:32 | 16.40026 | 107.70920 | 44 ft | 19 kts | 274° |
| 2026-04-26 07:32 | 16.40032 | 107.70784 | 45 ft | 19 kts | 273° |
| 2026-04-26 07:32 | 16.40040 | 107.70649 | 47 ft | 18 kts | 273° |
| 2026-04-26 07:33 | 16.40047 | 107.70517 | 48 ft | 18 kts | 273° |
| 2026-04-26 07:33 | 16.40054 | 107.70387 | 51 ft | 18 kts | 273° |
| 2026-04-26 07:33 | 16.40055 | 107.70287 | 52 ft | 11 kts | 254° |
| 2026-04-26 07:33 | 16.39997 | 107.70248 | 53 ft | 11 kts | 188° |
| 2026-04-26 07:34 | 16.39940 | 107.70244 | 53 ft | 7 kts | 184° |
| 2026-04-26 07:34 | 16.39911 | 107.70242 | 53 ft | 4 kts | 183° |
| 2026-04-26 07:34 | 16.39882 | 107.70241 | 53 ft | 5 kts | 183° |
| 2026-04-26 07:34 | 16.39847 | 107.70239 | 53 ft | 5 kts | 182° |
| 2026-04-26 07:35 | 16.39823 | 107.70263 | 51 ft | 6 kts | 101° |
| 2026-04-26 07:35 | 16.39802 | 107.70291 | 50 ft | 5 kts | 156° |
| 2026-04-26 07:35 | 16.39761 | 107.70295 | 52 ft | 7 kts | 183° |
| 2026-04-26 07:35 | 16.39733 | 107.70293 | 52 ft | 1 kts | 183° |
| 2026-04-26 07:36 | 16.39732 | 107.70293 | 52 ft | 0 kts | 183° |